createdAt,value
2023-04-27T00:00:54.576Z,100114.66
2023-04-27T00:01:56.475Z,100109.31
2023-04-27T00:02:58.437Z,100113.00
2023-04-27T00:04:00.755Z,100112.13
2023-04-27T00:05:02.924Z,100120.84
2023-04-27T00:06:05.763Z,100122.84
2023-04-27T00:07:07.783Z,100122.84
2023-04-27T00:08:09.796Z,100125.53
2023-04-27T00:09:12.181Z,100129.06
2023-04-27T00:10:14.134Z,100122.84
2023-04-27T00:11:16.060Z,100129.06
2023-04-27T00:12:17.923Z,100122.03
2023-04-27T00:13:19.794Z,100131.75
2023-04-27T00:14:21.952Z,100121.19
2023-04-27T00:15:24.110Z,100118.31
2023-04-27T00:16:26.450Z,100129.56
2023-04-27T00:17:28.373Z,100126.53
2023-04-27T00:18:31.258Z,100131.91
2023-04-27T00:19:33.161Z,100130.88
2023-04-27T00:20:34.970Z,100126.53
2023-04-27T00:21:36.748Z,100119.69
2023-04-27T00:22:39.691Z,100124.03
2023-04-27T00:23:41.579Z,100123.19
2023-04-27T00:24:43.424Z,100119.19
2023-04-27T00:25:45.180Z,100130.22
2023-04-27T00:26:47.138Z,100128.56
2023-04-27T00:27:49.116Z,100116.00
2023-04-27T00:28:50.892Z,100133.09
2023-04-27T00:29:52.709Z,100137.59
2023-04-27T00:30:54.982Z,100137.59
2023-04-27T00:31:56.784Z,100131.41
2023-04-27T00:32:58.669Z,100134.25
2023-04-27T00:34:00.660Z,100140.28
2023-04-27T00:35:02.534Z,100134.59
2023-04-27T00:36:04.543Z,100135.91
2023-04-27T00:37:06.486Z,100142.28
2023-04-27T00:38:08.270Z,100135.91
2023-04-27T00:39:10.062Z,100133.25
2023-04-27T00:40:12.436Z,100130.91
2023-04-27T00:41:14.278Z,100134.25
2023-04-27T00:42:19.649Z,100139.59
2023-04-27T00:43:25.754Z,100137.59
2023-04-27T00:44:28.358Z,100135.91
2023-04-27T00:45:31.072Z,100135.91
2023-04-27T00:46:34.078Z,100133.44
2023-04-27T00:47:36.682Z,100128.88
2023-04-27T00:48:38.854Z,100127.22
2023-04-27T00:49:41.361Z,100126.38
2023-04-27T00:50:43.384Z,100133.44
2023-04-27T00:51:45.692Z,100133.44
2023-04-27T00:52:47.654Z,100128.22
2023-04-27T00:53:53.460Z,100120.00
2023-04-27T00:54:57.747Z,100128.22
2023-04-27T00:55:59.588Z,100131.72
2023-04-27T00:57:02.321Z,100120.53
2023-04-27T00:58:04.235Z,100128.22
2023-04-27T00:59:06.622Z,100129.03
2023-04-27T01:00:11.846Z,100128.38
2023-04-27T01:02:15.943Z,100135.41
2023-04-27T01:03:18.569Z,100121.00
2023-04-27T01:04:20.638Z,100136.41
2023-04-27T01:05:24.518Z,100132.91
2023-04-27T01:06:28.258Z,100132.91
2023-04-27T01:07:30.049Z,100135.94
2023-04-27T01:08:33.188Z,100139.09
2023-04-27T01:09:37.443Z,100129.56
2023-04-27T01:10:39.244Z,100142.63
2023-04-27T01:11:41.064Z,100141.94
2023-04-27T01:12:42.839Z,100139.28
2023-04-27T01:13:45.056Z,100124.38
2023-04-27T01:14:46.857Z,100142.97
2023-04-27T01:15:48.896Z,100145.63
2023-04-27T01:16:52.133Z,100140.28
2023-04-27T01:18:01.952Z,100136.75
2023-04-27T01:19:04.607Z,100147.13
2023-04-27T01:20:10.705Z,100148.31
2023-04-27T01:21:12.646Z,100151.66
2023-04-27T01:22:15.406Z,100136.59
2023-04-27T01:23:17.641Z,100151.00
2023-04-27T01:24:19.704Z,100145.63
2023-04-27T01:25:21.594Z,100144.78
2023-04-27T01:26:23.373Z,100149.31
2023-04-27T01:27:26.047Z,100141.44
2023-04-27T01:28:27.930Z,100151.16
2023-04-27T01:29:29.820Z,100147.66
2023-04-27T01:30:31.642Z,100151.34
2023-04-27T01:31:34.141Z,100148.66
2023-04-27T01:32:38.289Z,100147.97
2023-04-27T01:33:40.552Z,100158.38
2023-04-27T01:34:42.341Z,100159.19
2023-04-27T01:35:44.266Z,100152.34
2023-04-27T01:36:46.073Z,100155.84
2023-04-27T01:37:47.989Z,100154.84
2023-04-27T01:38:52.666Z,100153.00
2023-04-27T01:39:54.471Z,100148.66
2023-04-27T01:41:01.890Z,100154.16
2023-04-27T01:42:04.058Z,100148.66
2023-04-27T01:43:05.898Z,100151.34
2023-04-27T01:44:09.583Z,100154.00
2023-04-27T01:45:11.955Z,100148.66
2023-04-27T01:46:15.690Z,100148.66
2023-04-27T01:47:17.880Z,100144.31
2023-04-27T01:48:19.760Z,100144.31
2023-04-27T01:49:21.609Z,100144.31
2023-04-27T01:50:24.160Z,100149.66
2023-04-27T01:51:26.090Z,100142.44
2023-04-27T01:52:28.320Z,100143.44
2023-04-27T01:53:31.097Z,100146.97
2023-04-27T01:54:32.961Z,100139.09
2023-04-27T01:55:35.109Z,100136.41
2023-04-27T01:56:36.964Z,100138.09
2023-04-27T01:57:38.791Z,100139.94
2023-04-27T01:58:40.754Z,100140.94
2023-04-27T01:59:42.991Z,100136.41
2023-04-27T02:00:44.986Z,100137.28
2023-04-27T02:01:46.774Z,100145.31
2023-04-27T02:02:51.213Z,100135.25
2023-04-27T02:03:53.633Z,100140.94
2023-04-27T02:04:55.658Z,100140.94
2023-04-27T02:05:57.747Z,100148.81
2023-04-27T02:06:59.554Z,100142.63
2023-04-27T02:08:01.322Z,100149.81
2023-04-27T02:09:03.465Z,100143.63
2023-04-27T02:10:06.224Z,100148.13
2023-04-27T02:11:08.073Z,100147.31
2023-04-27T02:12:09.931Z,100149.81
2023-04-27T02:13:11.780Z,100146.31
2023-04-27T02:14:14.286Z,100155.34
2023-04-27T02:15:16.730Z,100147.47
2023-04-27T02:16:18.956Z,100143.63
2023-04-27T02:17:20.875Z,100146.31
2023-04-27T02:18:23.136Z,100158.03
2023-04-27T02:19:24.949Z,100149.13
2023-04-27T02:20:27.255Z,100146.66
2023-04-27T02:21:29.554Z,100161.53
2023-04-27T02:22:31.557Z,100151.66
2023-04-27T02:23:34.772Z,100151.66
2023-04-27T02:24:36.857Z,100155.34
2023-04-27T02:25:39.201Z,100150.00
2023-04-27T02:26:41.029Z,100153.69
2023-04-27T02:27:43.663Z,100148.31
2023-04-27T02:28:47.672Z,100151.81
2023-04-27T02:29:50.036Z,100147.31
2023-04-27T02:30:52.350Z,100148.31
2023-04-27T02:31:54.211Z,100140.28
2023-04-27T02:32:57.578Z,100137.59
2023-04-27T02:33:59.545Z,100145.47
2023-04-27T02:35:02.072Z,100154.50
2023-04-27T02:36:04.752Z,100148.31
2023-04-27T02:37:06.633Z,100158.03
2023-04-27T02:38:08.642Z,100141.97
2023-04-27T02:39:13.033Z,100138.59
2023-04-27T02:40:15.118Z,100153.69
2023-04-27T02:41:16.894Z,100152.00
2023-04-27T02:42:18.693Z,100152.00
2023-04-27T02:43:20.776Z,100157.34
2023-04-27T02:44:22.671Z,100158.38
2023-04-27T02:45:26.406Z,100157.34
2023-04-27T02:46:28.301Z,100152.00
2023-04-27T02:47:30.178Z,100153.81
2023-04-27T02:48:32.734Z,100158.38
2023-04-27T02:49:36.715Z,100154.00
2023-04-27T02:50:44.788Z,100153.00
2023-04-27T02:51:46.713Z,100156.34
2023-04-27T02:52:48.566Z,100155.69
2023-04-27T02:53:53.453Z,100158.53
2023-04-27T02:54:55.296Z,100166.22
2023-04-27T02:55:58.602Z,100161.88
2023-04-27T02:57:01.017Z,100158.69
2023-04-27T02:58:02.953Z,100158.84
2023-04-27T02:59:04.719Z,100167.22
2023-04-27T03:00:09.212Z,100165.56
2023-04-27T03:01:11.173Z,100168.06
2023-04-27T03:02:13.027Z,100150.28
2023-04-27T03:03:14.899Z,100166.41
2023-04-27T03:04:18.035Z,100161.03
2023-04-27T03:05:20.123Z,100161.88
2023-04-27T03:06:22.113Z,100171.75
2023-04-27T03:07:23.909Z,100168.06
2023-04-27T03:08:26.295Z,100169.09
2023-04-27T03:09:28.108Z,100171.75
2023-04-27T03:10:30.078Z,100167.22
2023-04-27T03:11:31.929Z,100166.41
2023-04-27T03:12:33.799Z,100171.75
2023-04-27T03:13:41.975Z,100177.13
2023-04-27T03:14:44.010Z,100165.22
2023-04-27T03:15:45.845Z,100168.91
2023-04-27T03:16:47.711Z,100173.44
2023-04-27T03:17:49.734Z,100172.56
2023-04-27T03:18:51.547Z,100177.13
2023-04-27T03:19:53.468Z,100176.13
2023-04-27T03:21:05.589Z,100170.09
2023-04-27T03:22:07.363Z,100182.97
2023-04-27T03:23:10.728Z,100175.94
2023-04-27T03:24:12.490Z,100174.25
2023-04-27T03:25:14.655Z,100183.28
2023-04-27T03:26:16.529Z,100181.63
2023-04-27T03:27:18.313Z,100178.94
2023-04-27T03:28:20.080Z,100178.13
2023-04-27T03:29:21.884Z,100174.44
2023-04-27T03:30:23.944Z,100181.63
2023-04-27T03:31:25.835Z,100183.47
2023-04-27T03:32:27.717Z,100183.47
2023-04-27T03:33:29.815Z,100175.44
2023-04-27T03:34:31.786Z,100180.78
2023-04-27T03:35:33.614Z,100179.94
2023-04-27T03:36:35.872Z,100186.97
2023-04-27T03:37:37.699Z,100182.47
2023-04-27T03:38:39.786Z,100186.16
2023-04-27T03:39:41.905Z,100194.19
2023-04-27T03:40:44.994Z,100191.50
2023-04-27T03:41:46.980Z,100197.69
2023-04-27T03:42:48.976Z,100194.34
2023-04-27T03:43:53.534Z,100199.69
2023-04-27T03:44:55.709Z,100198.69
2023-04-27T03:45:58.281Z,100202.22
2023-04-27T03:47:01.781Z,100208.41
2023-04-27T03:48:04.420Z,100204.91
2023-04-27T03:49:06.830Z,100175.06
2023-04-27T03:50:09.120Z,100204.22
2023-04-27T03:51:10.943Z,100195.53
2023-04-27T03:52:13.536Z,100204.22
2023-04-27T03:53:15.914Z,100202.56
2023-04-27T03:54:18.108Z,100206.91
2023-04-27T03:55:21.131Z,100208.72
2023-04-27T03:56:23.341Z,100215.75
2023-04-27T03:57:26.390Z,100207.06
2023-04-27T03:58:28.443Z,100205.22
2023-04-27T03:59:46.321Z,100212.59
2023-04-27T04:00:48.108Z,100210.94
2023-04-27T04:01:49.962Z,100212.25
2023-04-27T04:02:52.398Z,100214.94
2023-04-27T04:03:54.623Z,100207.91
2023-04-27T04:04:56.870Z,100211.59
2023-04-27T04:05:58.988Z,100214.28
2023-04-27T04:07:00.897Z,100216.09
2023-04-27T04:08:02.747Z,100217.25
2023-04-27T04:09:04.708Z,100216.09
2023-04-27T04:10:09.440Z,100219.78
2023-04-27T04:11:12.309Z,100218.78
2023-04-27T04:12:14.281Z,100218.91
2023-04-27T04:13:16.086Z,100217.94
2023-04-27T04:14:18.111Z,100216.25
2023-04-27T04:15:20.420Z,100216.25
2023-04-27T04:16:23.755Z,100209.06
2023-04-27T04:17:27.887Z,100217.94
2023-04-27T04:18:29.692Z,100208.88
2023-04-27T04:19:31.548Z,100216.44
2023-04-27T04:20:35.553Z,100218.25
2023-04-27T04:21:37.716Z,100217.25
2023-04-27T04:22:39.862Z,100213.41
2023-04-27T04:23:42.216Z,100217.25
2023-04-27T04:24:44.114Z,100224.47
2023-04-27T04:25:48.379Z,100222.59
2023-04-27T04:26:50.231Z,100229.81
2023-04-27T04:27:52.063Z,100231.63
2023-04-27T04:28:54.113Z,100223.59
2023-04-27T04:29:55.934Z,100227.13
2023-04-27T04:30:59.125Z,100221.94
2023-04-27T04:32:01.231Z,100216.56
2023-04-27T04:33:05.637Z,100223.59
2023-04-27T04:34:08.655Z,100220.94
2023-04-27T04:35:11.358Z,100214.91
2023-04-27T04:36:13.292Z,100226.28
2023-04-27T04:37:15.138Z,100232.66
2023-04-27T04:38:17.193Z,100229.16
2023-04-27T04:39:22.947Z,100231.81
2023-04-27T04:40:25.011Z,100232.66
2023-04-27T04:41:26.951Z,100233.66
2023-04-27T04:42:28.778Z,100236.31
2023-04-27T04:43:30.658Z,100234.66
2023-04-27T04:44:32.574Z,100220.56
2023-04-27T04:45:34.384Z,100239.19
2023-04-27T04:46:37.465Z,100234.66
2023-04-27T04:48:41.730Z,100246.38
2023-04-27T04:49:43.509Z,100238.31
2023-04-27T04:50:45.486Z,100247.22
2023-04-27T04:51:48.120Z,100241.00
2023-04-27T04:52:50.257Z,100250.91
2023-04-27T04:53:52.051Z,100242.00
2023-04-27T04:54:54.338Z,100244.00
2023-04-27T04:55:56.521Z,100231.28
2023-04-27T04:56:59.220Z,100251.91
2023-04-27T04:58:01.647Z,100250.03
2023-04-27T04:59:03.905Z,100245.53
2023-04-27T05:00:12.693Z,100253.72
2023-04-27T05:01:14.753Z,100249.91
2023-04-27T05:02:17.039Z,100251.91
2023-04-27T05:03:18.969Z,100249.38
2023-04-27T05:04:21.460Z,100249.38
2023-04-27T05:05:23.403Z,100245.19
2023-04-27T05:06:25.235Z,100252.03
2023-04-27T05:07:26.989Z,100252.91
2023-04-27T05:08:28.879Z,100256.41
2023-04-27T05:09:30.846Z,100258.25
2023-04-27T05:10:32.794Z,100255.41
2023-04-27T05:11:34.756Z,100240.00
2023-04-27T05:12:36.527Z,100262.44
2023-04-27T05:13:41.354Z,100256.75
2023-04-27T05:14:44.231Z,100261.78
2023-04-27T05:15:46.484Z,100256.25
2023-04-27T05:16:49.454Z,100256.94
2023-04-27T05:17:51.405Z,100261.97
2023-04-27T05:18:54.801Z,100261.81
2023-04-27T05:19:56.638Z,100259.63
2023-04-27T05:20:58.415Z,100259.31
2023-04-27T05:22:00.441Z,100260.81
2023-04-27T05:23:02.299Z,100262.16
2023-04-27T05:25:06.669Z,100257.16
2023-04-27T05:26:15.213Z,100263.03
2023-04-27T05:27:17.162Z,100264.19
2023-04-27T05:28:19.004Z,100259.50
2023-04-27T05:29:21.952Z,100270.75
2023-04-27T05:30:24.008Z,100259.69
2023-04-27T05:31:25.819Z,100266.41
2023-04-27T05:32:27.663Z,100268.94
2023-04-27T05:33:29.453Z,100257.88
2023-04-27T05:34:31.532Z,100269.09
2023-04-27T05:35:33.920Z,100255.88
2023-04-27T05:36:36.486Z,100260.56
2023-04-27T05:37:38.298Z,100267.25
2023-04-27T05:38:40.617Z,100265.09
2023-04-27T05:39:42.460Z,100265.59
2023-04-27T05:40:44.512Z,100266.25
2023-04-27T05:41:46.338Z,100263.41
2023-04-27T05:42:48.286Z,100258.88
2023-04-27T05:43:50.200Z,100265.41
2023-04-27T05:44:52.114Z,100263.22
2023-04-27T05:45:54.042Z,100264.06
2023-04-27T05:46:58.691Z,100267.41
2023-04-27T05:48:00.570Z,100266.06
2023-04-27T05:49:02.573Z,100281.16
2023-04-27T05:50:04.744Z,100270.28
2023-04-27T05:51:06.792Z,100267.25
2023-04-27T05:52:08.576Z,100273.44
2023-04-27T05:53:10.527Z,100265.25
2023-04-27T05:54:12.425Z,100266.06
2023-04-27T05:55:14.231Z,100270.25
2023-04-27T05:56:16.080Z,100260.19
2023-04-27T05:57:18.139Z,100276.97
2023-04-27T05:58:20.009Z,100259.88
2023-04-27T05:59:21.990Z,100272.25
2023-04-27T06:00:23.949Z,100270.25
2023-04-27T06:01:25.772Z,100264.88
2023-04-27T06:02:27.827Z,100270.91
2023-04-27T06:03:33.364Z,100262.84
2023-04-27T06:04:37.218Z,100268.88
2023-04-27T06:05:39.189Z,100272.25
2023-04-27T06:06:41.025Z,100273.91
2023-04-27T06:07:43.862Z,100256.16
2023-04-27T06:08:45.620Z,100265.88
2023-04-27T06:09:47.361Z,100266.72
2023-04-27T06:10:51.119Z,100277.25
2023-04-27T06:11:52.960Z,100251.81
2023-04-27T06:12:54.725Z,100269.88
2023-04-27T06:13:56.606Z,100266.38
2023-04-27T06:14:58.397Z,100280.44
2023-04-27T06:16:01.878Z,100270.72
2023-04-27T06:17:04.453Z,100277.59
2023-04-27T06:18:06.386Z,100279.25
2023-04-27T06:19:08.240Z,100276.56
2023-04-27T06:20:10.381Z,100273.88
2023-04-27T06:21:12.189Z,100278.25
2023-04-27T06:22:13.990Z,100272.88
2023-04-27T06:23:15.785Z,100270.19
2023-04-27T06:24:17.651Z,100273.72
2023-04-27T06:25:19.576Z,100271.88
2023-04-27T06:26:21.386Z,100272.72
2023-04-27T06:27:23.187Z,100270.53
2023-04-27T06:28:25.047Z,100276.22
2023-04-27T06:29:26.823Z,100282.44
2023-04-27T06:30:28.681Z,100273.38
2023-04-27T06:31:31.358Z,100280.78
2023-04-27T06:32:33.430Z,100274.75
2023-04-27T06:33:35.318Z,100278.75
2023-04-27T06:34:37.213Z,100282.28
2023-04-27T06:35:39.100Z,100280.44
2023-04-27T06:36:41.030Z,100286.69
2023-04-27T06:37:42.866Z,100287.50
2023-04-27T06:38:44.746Z,100277.63
2023-04-27T06:39:46.869Z,100274.09
2023-04-27T06:40:52.593Z,100270.38
2023-04-27T06:41:54.365Z,100280.97
2023-04-27T06:42:56.130Z,100279.28
2023-04-27T06:43:59.085Z,100279.28
2023-04-27T06:45:01.372Z,100270.19
2023-04-27T06:46:03.424Z,100278.44
2023-04-27T06:47:05.564Z,100281.97
2023-04-27T06:48:07.426Z,100288.16
2023-04-27T06:49:09.421Z,100289.03
2023-04-27T06:50:11.473Z,100290.03
2023-04-27T06:51:13.648Z,100292.72
2023-04-27T06:52:15.568Z,100285.47
2023-04-27T06:53:17.444Z,100285.69
2023-04-27T06:54:19.686Z,100292.88
2023-04-27T06:55:21.692Z,100288.34
2023-04-27T06:56:23.533Z,100300.78
2023-04-27T06:57:25.308Z,100305.28
2023-04-27T06:58:27.521Z,100300.78
2023-04-27T06:59:29.337Z,100295.41
2023-04-27T07:00:31.923Z,100299.09
2023-04-27T07:01:34.044Z,100296.41
2023-04-27T07:02:36.148Z,100298.09
2023-04-27T07:03:38.356Z,100303.44
2023-04-27T07:04:40.672Z,100302.59
2023-04-27T07:05:42.784Z,100299.09
2023-04-27T07:06:44.580Z,100303.59
2023-04-27T07:07:46.412Z,100302.59
2023-04-27T07:08:48.195Z,100301.78
2023-04-27T07:09:49.964Z,100303.59
2023-04-27T07:10:51.826Z,100299.22
2023-04-27T07:11:53.680Z,100291.66
2023-04-27T07:12:55.440Z,100302.78
2023-04-27T07:13:57.349Z,100297.03
2023-04-27T07:14:59.138Z,100302.78
2023-04-27T07:16:01.315Z,100300.09
2023-04-27T07:17:03.374Z,100300.91
2023-04-27T07:18:05.418Z,100303.59
2023-04-27T07:19:07.327Z,100302.78
2023-04-27T07:20:09.463Z,100277.25
2023-04-27T07:21:11.501Z,100299.91
2023-04-27T07:22:13.490Z,100307.13
2023-04-27T07:23:15.341Z,100299.91
2023-04-27T07:24:17.102Z,100302.78
2023-04-27T07:25:19.754Z,100294.19
2023-04-27T07:26:23.953Z,100301.78
2023-04-27T07:27:26.628Z,100290.50
2023-04-27T07:28:29.647Z,100300.78
2023-04-27T07:29:32.333Z,100308.81
2023-04-27T07:30:36.589Z,100300.78
2023-04-27T07:31:38.627Z,100313.31
2023-04-27T07:32:41.998Z,100309.81
2023-04-27T07:33:44.274Z,100311.50
2023-04-27T07:34:53.350Z,100308.44
2023-04-27T07:35:56.767Z,100317.53
2023-04-27T07:36:58.834Z,100310.09
2023-04-27T07:38:03.610Z,100327.41
2023-04-27T07:39:06.440Z,100321.03
2023-04-27T07:40:14.688Z,100324.72
2023-04-27T07:41:16.742Z,100322.91
2023-04-27T07:42:19.365Z,100330.97
2023-04-27T07:43:23.122Z,100333.44
2023-04-27T07:44:25.062Z,100321.03
2023-04-27T07:45:33.560Z,100328.41
2023-04-27T07:46:35.379Z,100329.94
2023-04-27T07:47:37.874Z,100334.47
2023-04-27T07:48:39.777Z,100339.00
2023-04-27T07:49:41.585Z,100339.81
2023-04-27T07:50:43.448Z,100333.63
2023-04-27T07:51:45.240Z,100339.00
2023-04-27T07:52:47.028Z,100333.78
2023-04-27T07:53:48.828Z,100336.31
2023-04-27T07:54:51.117Z,100330.97
2023-04-27T07:55:52.976Z,100341.69
2023-04-27T07:56:54.969Z,100341.69
2023-04-27T07:57:57.268Z,100336.31
2023-04-27T07:58:59.268Z,100335.25
2023-04-27T08:00:01.429Z,100337.16
2023-04-27T08:01:03.237Z,100347.06
2023-04-27T08:02:18.424Z,100333.44
2023-04-27T08:03:23.052Z,100347.38
2023-04-27T08:04:25.252Z,100344.84
2023-04-27T08:05:27.470Z,100351.06
2023-04-27T08:06:30.176Z,100346.72
2023-04-27T08:07:37.147Z,100356.59
2023-04-27T08:08:42.959Z,100355.44
2023-04-27T08:09:45.141Z,100361.81
2023-04-27T08:10:46.916Z,100352.09
2023-04-27T08:11:48.981Z,100354.44
2023-04-27T08:12:50.969Z,100363.81
2023-04-27T08:13:52.762Z,100356.59
2023-04-27T08:14:54.598Z,100352.41
2023-04-27T08:15:58.667Z,100367.34
2023-04-27T08:17:00.588Z,100369.19
2023-04-27T08:18:02.403Z,100368.34
2023-04-27T08:19:04.436Z,100372.69
2023-04-27T08:20:07.136Z,100371.88
2023-04-27T08:21:08.931Z,100376.25
2023-04-27T08:22:10.951Z,100373.56
2023-04-27T08:23:13.111Z,100373.56
2023-04-27T08:24:14.872Z,100379.75
2023-04-27T08:25:17.200Z,100378.91
2023-04-27T08:26:18.971Z,100372.69
2023-04-27T08:27:20.816Z,100370.53
2023-04-27T08:28:23.538Z,100385.13
2023-04-27T08:29:28.612Z,100382.44
2023-04-27T08:30:31.272Z,100378.72
2023-04-27T08:31:33.622Z,100385.13
2023-04-27T08:32:35.494Z,100387.63
2023-04-27T08:33:37.347Z,100382.28
2023-04-27T08:34:39.149Z,100391.16
2023-04-27T08:35:41.640Z,100386.78
2023-04-27T08:36:43.349Z,100393.00
2023-04-27T08:37:45.222Z,100387.63
2023-04-27T08:38:47.062Z,100385.97
2023-04-27T08:39:49.309Z,100394.69
2023-04-27T08:40:51.106Z,100394.69
2023-04-27T08:41:52.955Z,100393.84
2023-04-27T08:42:57.089Z,100393.84
2023-04-27T08:43:59.631Z,100400.06
2023-04-27T08:45:01.715Z,100398.19
2023-04-27T08:46:03.599Z,100392.81
2023-04-27T08:47:05.565Z,100391.34
2023-04-27T08:48:07.450Z,100399.03
2023-04-27T08:49:10.025Z,100398.19
2023-04-27T08:50:12.850Z,100382.28
2023-04-27T08:51:16.117Z,100402.75
2023-04-27T08:52:18.049Z,100395.84
2023-04-27T08:53:21.576Z,100405.22
2023-04-27T08:54:23.376Z,100403.41
2023-04-27T08:55:25.276Z,100404.22
2023-04-27T08:56:28.877Z,100405.44
2023-04-27T08:57:31.307Z,100405.22
2023-04-27T08:58:39.700Z,100406.25
2023-04-27T08:59:42.404Z,100404.22
2023-04-27T09:00:46.154Z,100399.88
2023-04-27T09:01:49.663Z,100406.91
2023-04-27T09:02:51.988Z,100403.41
2023-04-27T09:04:01.982Z,100403.41
2023-04-27T09:05:04.536Z,100401.38
2023-04-27T09:06:07.264Z,100411.28
2023-04-27T09:07:16.781Z,100409.59
2023-04-27T09:08:18.664Z,100408.44
2023-04-27T09:09:24.538Z,100389.47
2023-04-27T09:10:29.249Z,100408.44
2023-04-27T09:11:35.989Z,100399.72
2023-04-27T09:12:37.900Z,100410.59
2023-04-27T09:13:41.929Z,100412.13
2023-04-27T09:14:44.098Z,100412.13
2023-04-27T09:15:50.899Z,100415.81
2023-04-27T09:16:58.065Z,100412.13
2023-04-27T09:17:59.958Z,100402.41
2023-04-27T09:19:01.797Z,100402.06
2023-04-27T09:20:09.127Z,100418.50
2023-04-27T09:21:11.018Z,100408.44
2023-04-27T09:22:14.849Z,100401.06
2023-04-27T09:23:27.985Z,100419.84
2023-04-27T09:24:29.932Z,100420.50
2023-04-27T09:25:33.677Z,100409.25
2023-04-27T09:26:35.767Z,100418.16
2023-04-27T09:27:44.292Z,100416.31
2023-04-27T09:28:49.729Z,100418.84
2023-04-27T09:29:51.844Z,100424.00
2023-04-27T09:30:58.200Z,100405.91
2023-04-27T09:32:00.021Z,100424.88
2023-04-27T09:33:02.257Z,100420.50
2023-04-27T09:34:04.309Z,100427.56
2023-04-27T09:35:21.483Z,100428.41
2023-04-27T09:36:23.653Z,100421.19
2023-04-27T09:37:27.100Z,100430.09
2023-04-27T09:38:30.632Z,100433.59
2023-04-27T09:39:32.961Z,100424.72
2023-04-27T09:40:35.366Z,100429.22
2023-04-27T09:41:46.393Z,100437.28
2023-04-27T09:42:48.762Z,100431.91
2023-04-27T09:43:51.800Z,100426.69
2023-04-27T09:44:54.440Z,100436.13
2023-04-27T09:45:57.019Z,100435.75
2023-04-27T09:47:00.549Z,100430.91
2023-04-27T09:48:04.337Z,100426.69
2023-04-27T09:49:06.359Z,100420.00
2023-04-27T09:50:09.507Z,100433.44
2023-04-27T09:51:11.521Z,100429.91
2023-04-27T09:52:13.337Z,100436.13
2023-04-27T09:53:21.038Z,100441.97
2023-04-27T09:54:27.364Z,100432.44
2023-04-27T09:55:34.586Z,100427.41
2023-04-27T09:56:51.531Z,100440.28
2023-04-27T09:58:02.985Z,100438.13
2023-04-27T09:59:26.948Z,100447.66
2023-04-27T10:00:39.269Z,100443.97
2023-04-27T10:01:49.143Z,100455.06
2023-04-27T10:03:25.634Z,100447.50
2023-04-27T10:04:51.971Z,100456.22
2023-04-27T10:06:29.079Z,100462.44
2023-04-27T10:07:32.623Z,100456.06
2023-04-27T10:08:35.954Z,100462.09
2023-04-27T10:09:41.438Z,100467.81
2023-04-27T10:10:49.993Z,100470.50
2023-04-27T10:11:53.677Z,100456.06
2023-04-27T10:12:58.082Z,100469.84
2023-04-27T10:14:10.932Z,100474.19
2023-04-27T10:15:17.434Z,100464.31
2023-04-27T10:16:19.965Z,100464.31
2023-04-27T10:17:36.550Z,100455.72
2023-04-27T10:18:38.372Z,100457.75
2023-04-27T10:19:40.397Z,100463.63
2023-04-27T10:20:42.401Z,100468.00
2023-04-27T10:22:02.376Z,100472.50
2023-04-27T10:23:04.657Z,100469.50
2023-04-27T10:24:11.295Z,100451.72
2023-04-27T10:25:24.141Z,100470.84
2023-04-27T10:26:28.269Z,100476.53
2023-04-27T10:27:39.464Z,100475.72
2023-04-27T10:28:41.811Z,100481.91
2023-04-27T10:29:46.143Z,100478.56
2023-04-27T10:30:52.011Z,100479.41
2023-04-27T10:31:53.985Z,100481.25
2023-04-27T10:33:00.390Z,100484.09
2023-04-27T10:34:16.053Z,100484.78
2023-04-27T10:35:18.086Z,100483.59
2023-04-27T10:36:19.840Z,100485.59
2023-04-27T10:37:25.489Z,100493.84
2023-04-27T10:38:31.396Z,100479.91
2023-04-27T10:39:48.746Z,100486.59
2023-04-27T10:40:57.460Z,100497.00
2023-04-27T10:41:59.299Z,100488.97
2023-04-27T10:43:09.626Z,100496.19
2023-04-27T10:44:29.335Z,100478.06
2023-04-27T10:45:33.960Z,100503.06
2023-04-27T10:46:36.569Z,100494.31
2023-04-27T10:47:43.468Z,100497.19
2023-04-27T10:48:45.495Z,100484.59
2023-04-27T10:49:47.269Z,100465.81
2023-04-27T10:50:51.807Z,100499.22
2023-04-27T10:51:53.625Z,100500.38
2023-04-27T10:53:01.670Z,100503.72
2023-04-27T10:54:03.738Z,100500.38
2023-04-27T10:55:14.151Z,100507.09
2023-04-27T10:56:16.063Z,100508.75
2023-04-27T10:57:18.098Z,100504.06
2023-04-27T10:58:23.806Z,100501.38
2023-04-27T10:59:25.633Z,100507.09
2023-04-27T11:00:33.572Z,100509.28
2023-04-27T11:01:36.161Z,100508.75
2023-04-27T11:02:38.091Z,100508.28
2023-04-27T11:03:40.165Z,100514.47
2023-04-27T11:04:42.442Z,100505.75
2023-04-27T11:05:46.911Z,100509.09
2023-04-27T11:06:48.894Z,100512.44
2023-04-27T11:07:51.945Z,100516.16
2023-04-27T11:08:54.338Z,100504.25
2023-04-27T11:09:56.154Z,100515.13
2023-04-27T11:10:58.098Z,100516.16
2023-04-27T11:12:00.757Z,100511.44
2023-04-27T11:13:11.387Z,100524.03
2023-04-27T11:14:19.807Z,100530.25
2023-04-27T11:15:22.026Z,100528.22
2023-04-27T11:16:24.388Z,100529.22
2023-04-27T11:17:30.191Z,100531.91
2023-04-27T11:18:33.716Z,100537.28
2023-04-27T11:19:47.964Z,100536.28
2023-04-27T11:20:52.387Z,100536.28
2023-04-27T11:22:03.318Z,100528.22
2023-04-27T11:23:06.071Z,100536.13
2023-04-27T11:24:10.161Z,100536.28
2023-04-27T11:25:12.931Z,100528.56
2023-04-27T11:26:22.005Z,100535.47
2023-04-27T11:27:25.359Z,100543.31
2023-04-27T11:28:27.247Z,100530.56
2023-04-27T11:29:39.056Z,100538.97
2023-04-27T11:30:40.949Z,100540.50
2023-04-27T11:31:48.934Z,100544.34
2023-04-27T11:32:51.625Z,100548.03
2023-04-27T11:33:55.888Z,100542.84
2023-04-27T11:34:59.682Z,100543.66
2023-04-27T11:36:01.659Z,100548.88
2023-04-27T11:37:17.823Z,100554.75
2023-04-27T11:38:20.572Z,100546.88
2023-04-27T11:39:23.025Z,100555.75
2023-04-27T11:40:25.247Z,100558.63
2023-04-27T11:41:34.966Z,100556.75
2023-04-27T11:42:36.970Z,100548.22
2023-04-27T11:43:43.502Z,100544.34
2023-04-27T11:44:56.941Z,100553.91
2023-04-27T11:46:02.290Z,100553.41
2023-04-27T11:47:05.096Z,100569.16
2023-04-27T11:48:07.705Z,100574.53
2023-04-27T11:49:09.555Z,100575.56
2023-04-27T11:50:11.390Z,100568.50
2023-04-27T11:51:13.162Z,100576.56
2023-04-27T11:52:15.841Z,100569.50
2023-04-27T11:53:18.853Z,100572.19
2023-04-27T11:54:28.658Z,100573.88
2023-04-27T11:55:31.243Z,100571.84
2023-04-27T11:56:41.034Z,100572.03
2023-04-27T11:57:43.288Z,100578.09
2023-04-27T11:58:46.401Z,100578.22
2023-04-27T11:59:48.442Z,100580.91
2023-04-27T12:00:50.327Z,100578.22
2023-04-27T12:01:52.227Z,100577.41
2023-04-27T12:02:54.381Z,100581.94
2023-04-27T12:03:56.954Z,100587.28
2023-04-27T12:05:00.040Z,100576.22
2023-04-27T12:07:07.145Z,100582.94